sensor_id;sensor_type;location;lat;lon;timestamp;temperature;humidity
83596;HTU21D;73564;45.026;38.952;2024-03-02T00:00:19;10.64;51.33
83596;HTU21D;73564;45.026;38.952;2024-03-02T00:02:48;10.46;52.32
83596;HTU21D;73564;45.026;38.952;2024-03-02T00:05:19;10.43;52.50
83596;HTU21D;73564;45.026;38.952;2024-03-02T00:07:55;10.29;51.45
83596;HTU21D;73564;45.026;38.952;2024-03-02T00:10:26;10.11;52.94
83596;HTU21D;73564;45.026;38.952;2024-03-02T00:12:58;10.01;52.24
83596;HTU21D;73564;45.026;38.952;2024-03-02T00:17:59;9.55;53.73
83596;HTU21D;73564;45.026;38.952;2024-03-02T00:20:25;9.52;54.17
83596;HTU21D;73564;45.026;38.952;2024-03-02T00:23:06;9.47;55.94
83596;HTU21D;73564;45.026;38.952;2024-03-02T00:25:48;9.36;53.81
83596;HTU21D;73564;45.026;38.952;2024-03-02T00:31:19;9.04;53.75
83596;HTU21D;73564;45.026;38.952;2024-03-02T00:33:47;8.78;53.95
83596;HTU21D;73564;45.026;38.952;2024-03-02T00:36:15;8.58;53.41
83596;HTU21D;73564;45.026;38.952;2024-03-02T00:38:50;8.29;54.02
83596;HTU21D;73564;45.026;38.952;2024-03-02T00:41:27;8.11;54.39
83596;HTU21D;73564;45.026;38.952;2024-03-02T00:44:06;7.96;57.30
83596;HTU21D;73564;45.026;38.952;2024-03-02T00:46:35;7.89;55.93
83596;HTU21D;73564;45.026;38.952;2024-03-02T00:49:05;7.85;54.94
83596;HTU21D;73564;45.026;38.952;2024-03-02T00:51:32;7.65;54.76
83596;HTU21D;73564;45.026;38.952;2024-03-02T00:54:00;7.43;54.76
83596;HTU21D;73564;45.026;38.952;2024-03-02T00:56:26;7.19;55.00
83596;HTU21D;73564;45.026;38.952;2024-03-02T00:58:52;6.94;55.76
83596;HTU21D;73564;45.026;38.952;2024-03-02T01:01:19;6.76;56.64
83596;HTU21D;73564;45.026;38.952;2024-03-02T01:03:48;6.78;57.08
83596;HTU21D;73564;45.026;38.952;2024-03-02T01:06:17;6.82;58.85
83596;HTU21D;73564;45.026;38.952;2024-03-02T01:08:44;6.89;56.93
83596;HTU21D;73564;45.026;38.952;2024-03-02T01:11:10;6.85;57.30
83596;HTU21D;73564;45.026;38.952;2024-03-02T01:13:36;6.86;57.48
83596;HTU21D;73564;45.026;38.952;2024-03-02T01:16:02;6.93;62.40
83596;HTU21D;73564;45.026;38.952;2024-03-02T01:18:28;7.20;61.05
83596;HTU21D;73564;45.026;38.952;2024-03-02T01:20:54;7.53;61.73
83596;HTU21D;73564;45.026;38.952;2024-03-02T01:23:24;7.84;62.61
83596;HTU21D;73564;45.026;38.952;2024-03-02T01:25:51;8.02;58.15
83596;HTU21D;73564;45.026;38.952;2024-03-02T01:28:17;8.01;56.75
83596;HTU21D;73564;45.026;38.952;2024-03-02T01:30:44;7.85;58.00
83596;HTU21D;73564;45.026;38.952;2024-03-02T01:33:10;7.78;58.80
83596;HTU21D;73564;45.026;38.952;2024-03-02T01:35:36;7.74;57.42
83596;HTU21D;73564;45.026;38.952;2024-03-02T01:38:03;7.55;56.18
83596;HTU21D;73564;45.026;38.952;2024-03-02T01:40:29;7.24;57.71
83596;HTU21D;73564;45.026;38.952;2024-03-02T01:42:55;7.19;60.96
83596;HTU21D;73564;45.026;38.952;2024-03-02T01:45:23;7.28;59.07
83596;HTU21D;73564;45.026;38.952;2024-03-02T01:47:49;7.29;58.74
83596;HTU21D;73564;45.026;38.952;2024-03-02T01:50:16;7.38;63.23
83596;HTU21D;73564;45.026;38.952;2024-03-02T01:52:49;7.61;62.53
83596;HTU21D;73564;45.026;38.952;2024-03-02T01:55:15;7.87;61.09
83596;HTU21D;73564;45.026;38.952;2024-03-02T01:57:41;8.11;60.76
83596;HTU21D;73564;45.026;38.952;2024-03-02T02:00:07;8.20;58.41
83596;HTU21D;73564;45.026;38.952;2024-03-02T02:02:37;8.20;59.05
83596;HTU21D;73564;45.026;38.952;2024-03-02T02:05:03;8.19;60.29
83596;HTU21D;73564;45.026;38.952;2024-03-02T02:07:29;8.18;56.71
83596;HTU21D;73564;45.026;38.952;2024-03-02T02:09:55;7.87;57.32
83596;HTU21D;73564;45.026;38.952;2024-03-02T02:12:21;7.62;56.58
83596;HTU21D;73564;45.026;38.952;2024-03-02T02:14:48;7.37;58.60
83596;HTU21D;73564;45.026;38.952;2024-03-02T02:17:16;7.22;59.15
83596;HTU21D;73564;45.026;38.952;2024-03-02T02:19:42;7.26;59.32
83596;HTU21D;73564;45.026;38.952;2024-03-02T02:22:09;7.26;60.70
83596;HTU21D;73564;45.026;38.952;2024-03-02T02:24:35;7.33;62.31
83596;HTU21D;73564;45.026;38.952;2024-03-02T02:27:01;7.59;61.68
83596;HTU21D;73564;45.026;38.952;2024-03-02T02:29:27;7.82;61.29
83596;HTU21D;73564;45.026;38.952;2024-03-02T02:31:53;8.08;62.10
83596;HTU21D;73564;45.026;38.952;2024-03-02T02:34:18;8.29;61.02
83596;HTU21D;73564;45.026;38.952;2024-03-02T02:36:44;8.48;60.12
83596;HTU21D;73564;45.026;38.952;2024-03-02T02:39:14;8.68;59.41
83596;HTU21D;73564;45.026;38.952;2024-03-02T02:41:41;8.80;59.25
83596;HTU21D;73564;45.026;38.952;2024-03-02T02:44:07;8.94;59.32
83596;HTU21D;73564;45.026;38.952;2024-03-02T02:46:32;9.07;58.80
83596;HTU21D;73564;45.026;38.952;2024-03-02T02:48:58;9.14;57.30
83596;HTU21D;73564;45.026;38.952;2024-03-02T02:51:24;9.12;57.04
83596;HTU21D;73564;45.026;38.952;2024-03-02T02:53:51;9.05;57.13
83596;HTU21D;73564;45.026;38.952;2024-03-02T02:56:17;9.02;57.83
83596;HTU21D;73564;45.026;38.952;2024-03-02T02:58:42;9.06;57.39
83596;HTU21D;73564;45.026;38.952;2024-03-02T03:01:08;9.05;56.48
83596;HTU21D;73564;45.026;38.952;2024-03-02T03:03:34;8.95;56.36
83596;HTU21D;73564;45.026;38.952;2024-03-02T03:06:00;8.83;57.61
83596;HTU21D;73564;45.026;38.952;2024-03-02T03:08:26;8.82;57.12
83596;HTU21D;73564;45.026;38.952;2024-03-02T03:10:51;8.79;57.76
83596;HTU21D;73564;45.026;38.952;2024-03-02T03:13:17;8.81;57.36
83596;HTU21D;73564;45.026;38.952;2024-03-02T03:15:43;8.85;58.24
83596;HTU21D;73564;45.026;38.952;2024-03-02T03:18:08;8.97;58.04
83596;HTU21D;73564;45.026;38.952;2024-03-02T03:20:36;9.02;56.92
83596;HTU21D;73564;45.026;38.952;2024-03-02T03:23:01;9.03;57.08
83596;HTU21D;73564;45.026;38.952;2024-03-02T03:25:30;9.06;57.75
83596;HTU21D;73564;45.026;38.952;2024-03-02T03:27:55;9.10;56.44
83596;HTU21D;73564;45.026;38.952;2024-03-02T03:30:21;9.10;57.39
83596;HTU21D;73564;45.026;38.952;2024-03-02T03:32:47;9.16;57.90
83596;HTU21D;73564;45.026;38.952;2024-03-02T03:35:15;9.22;57.04
83596;HTU21D;73564;45.026;38.952;2024-03-02T03:37:41;9.24;57.03
83596;HTU21D;73564;45.026;38.952;2024-03-02T03:40:07;9.27;57.17
83596;HTU21D;73564;45.026;38.952;2024-03-02T03:42:36;9.38;57.69
83596;HTU21D;73564;45.026;38.952;2024-03-02T03:45:03;9.42;56.48
83596;HTU21D;73564;45.026;38.952;2024-03-02T03:47:29;9.42;56.39
83596;HTU21D;73564;45.026;38.952;2024-03-02T03:49:56;9.37;56.72
83596;HTU21D;73564;45.026;38.952;2024-03-02T03:52:22;9.32;56.11
83596;HTU21D;73564;45.026;38.952;2024-03-02T03:54:47;9.30;57.08
83596;HTU21D;73564;45.026;38.952;2024-03-02T03:57:13;9.37;56.36
83596;HTU21D;73564;45.026;38.952;2024-03-02T03:59:39;9.37;56.32
83596;HTU21D;73564;45.026;38.952;2024-03-02T04:02:05;9.39;56.97
83596;HTU21D;73564;45.026;38.952;2024-03-02T04:04:30;9.45;56.35
83596;HTU21D;73564;45.026;38.952;2024-03-02T04:06:56;9.41;55.71
83596;HTU21D;73564;45.026;38.952;2024-03-02T04:09:22;9.36;54.78
83596;HTU21D;73564;45.026;38.952;2024-03-02T04:11:48;9.29;55.84
83596;HTU21D;73564;45.026;38.952;2024-03-02T04:14:13;9.22;54.15
83596;HTU21D;73564;45.026;38.952;2024-03-02T04:16:39;8.90;54.52
83596;HTU21D;73564;45.026;38.952;2024-03-02T04:19:05;8.48;55.39
83596;HTU21D;73564;45.026;38.952;2024-03-02T04:21:31;8.17;55.45
83596;HTU21D;73564;45.026;38.952;2024-03-02T04:23:57;7.97;56.51
83596;HTU21D;73564;45.026;38.952;2024-03-02T04:26:25;7.77;56.68
83596;HTU21D;73564;45.026;38.952;2024-03-02T04:28:52;7.59;58.47
83596;HTU21D;73564;45.026;38.952;2024-03-02T04:31:18;7.58;57.12
83596;HTU21D;73564;45.026;38.952;2024-03-02T04:33:44;7.48;57.42
83596;HTU21D;73564;45.026;38.952;2024-03-02T04:36:10;7.42;57.96
83596;HTU21D;73564;45.026;38.952;2024-03-02T04:38:36;7.37;57.10
83596;HTU21D;73564;45.026;38.952;2024-03-02T04:41:03;7.23;57.17
83596;HTU21D;73564;45.026;38.952;2024-03-02T04:43:29;7.07;57.92
83596;HTU21D;73564;45.026;38.952;2024-03-02T04:45:54;7.03;59.12
83596;HTU21D;73564;45.026;38.952;2024-03-02T04:48:20;7.13;59.06
83596;HTU21D;73564;45.026;38.952;2024-03-02T04:50:47;7.24;60.75
83596;HTU21D;73564;45.026;38.952;2024-03-02T04:53:13;7.37;59.21
83596;HTU21D;73564;45.026;38.952;2024-03-02T04:55:39;7.42;58.70
83596;HTU21D;73564;45.026;38.952;2024-03-02T04:58:05;7.43;58.25
83596;HTU21D;73564;45.026;38.952;2024-03-02T05:00:32;7.45;60.92
83596;HTU21D;73564;45.026;38.952;2024-03-02T05:02:58;7.53;58.13
83596;HTU21D;73564;45.026;38.952;2024-03-02T05:05:24;7.45;57.64
83596;HTU21D;73564;45.026;38.952;2024-03-02T05:07:49;7.35;59.03
83596;HTU21D;73564;45.026;38.952;2024-03-02T05:10:15;7.42;58.29
83596;HTU21D;73564;45.026;38.952;2024-03-02T05:12:41;7.48;57.70
83596;HTU21D;73564;45.026;38.952;2024-03-02T05:15:07;7.39;58.23
83596;HTU21D;73564;45.026;38.952;2024-03-02T05:17:36;7.24;56.32
83596;HTU21D;73564;45.026;38.952;2024-03-02T05:20:05;6.94;56.55
83596;HTU21D;73564;45.026;38.952;2024-03-02T05:22:31;6.70;56.57
83596;HTU21D;73564;45.026;38.952;2024-03-02T05:24:57;6.49;57.04
83596;HTU21D;73564;45.026;38.952;2024-03-02T05:27:24;6.35;59.31
83596;HTU21D;73564;45.026;38.952;2024-03-02T05:29:50;6.34;58.60
83596;HTU21D;73564;45.026;38.952;2024-03-02T05:32:16;6.37;58.19
83596;HTU21D;73564;45.026;38.952;2024-03-02T05:34:41;6.42;60.67
83596;HTU21D;73564;45.026;38.952;2024-03-02T05:37:07;6.64;59.96
83596;HTU21D;73564;45.026;38.952;2024-03-02T05:39:34;6.80;58.58
83596;HTU21D;73564;45.026;38.952;2024-03-02T05:41:59;6.86;57.53
83596;HTU21D;73564;45.026;38.952;2024-03-02T05:44:25;6.83;58.48
83596;HTU21D;73564;45.026;38.952;2024-03-02T05:46:51;6.89;57.71
83596;HTU21D;73564;45.026;38.952;2024-03-02T05:49:16;6.93;58.43
83596;HTU21D;73564;45.026;38.952;2024-03-02T05:51:43;7.15;60.25
83596;HTU21D;73564;45.026;38.952;2024-03-02T05:54:08;7.42;57.67
83596;HTU21D;73564;45.026;38.952;2024-03-02T05:56:35;7.48;59.44
83596;HTU21D;73564;45.026;38.952;2024-03-02T05:59:00;7.67;60.64
83596;HTU21D;73564;45.026;38.952;2024-03-02T06:01:43;7.93;59.22
83596;HTU21D;73564;45.026;38.952;2024-03-02T06:04:10;8.13;57.58
83596;HTU21D;73564;45.026;38.952;2024-03-02T06:06:42;8.30;59.07
83596;HTU21D;73564;45.026;38.952;2024-03-02T06:09:08;8.60;58.01
83596;HTU21D;73564;45.026;38.952;2024-03-02T06:11:34;8.77;56.90
83596;HTU21D;73564;45.026;38.952;2024-03-02T06:14:00;8.80;55.79
83596;HTU21D;73564;45.026;38.952;2024-03-02T06:16:26;8.68;56.33
83596;HTU21D;73564;45.026;38.952;2024-03-02T06:18:51;8.70;57.45
83596;HTU21D;73564;45.026;38.952;2024-03-02T06:21:19;8.86;56.70
83596;HTU21D;73564;45.026;38.952;2024-03-02T06:23:45;9.05;57.29
83596;HTU21D;73564;45.026;38.952;2024-03-02T06:26:11;9.31;55.15
83596;HTU21D;73564;45.026;38.952;2024-03-02T06:28:38;9.18;54.79
83596;HTU21D;73564;45.026;38.952;2024-03-02T06:31:04;9.12;55.45
83596;HTU21D;73564;45.026;38.952;2024-03-02T06:33:30;9.20;55.70
83596;HTU21D;73564;45.026;38.952;2024-03-02T06:35:55;9.33;54.90
83596;HTU21D;73564;45.026;38.952;2024-03-02T06:38:21;9.29;53.95
83596;HTU21D;73564;45.026;38.952;2024-03-02T06:40:47;9.11;54.23
83596;HTU21D;73564;45.026;38.952;2024-03-02T06:43:13;9.04;54.10
83596;HTU21D;73564;45.026;38.952;2024-03-02T06:45:38;8.93;54.67
83596;HTU21D;73564;45.026;38.952;2024-03-02T06:48:04;8.94;54.10
83596;HTU21D;73564;45.026;38.952;2024-03-02T06:50:30;8.91;54.68
83596;HTU21D;73564;45.026;38.952;2024-03-02T06:52:56;8.97;55.29
83596;HTU21D;73564;45.026;38.952;2024-03-02T06:55:22;9.10;55.38
83596;HTU21D;73564;45.026;38.952;2024-03-02T06:57:50;9.26;54.50
83596;HTU21D;73564;45.026;38.952;2024-03-02T07:00:16;9.31;54.20
83596;HTU21D;73564;45.026;38.952;2024-03-02T07:02:44;9.14;53.46
83596;HTU21D;73564;45.026;38.952;2024-03-02T07:05:10;9.03;54.74
83596;HTU21D;73564;45.026;38.952;2024-03-02T07:07:37;9.16;55.48
83596;HTU21D;73564;45.026;38.952;2024-03-02T07:10:06;9.41;54.94
83596;HTU21D;73564;45.026;38.952;2024-03-02T07:12:33;9.67;53.84
83596;HTU21D;73564;45.026;38.952;2024-03-02T07:14:58;9.69;54.02
83596;HTU21D;73564;45.026;38.952;2024-03-02T07:17:31;9.76;54.81
83596;HTU21D;73564;45.026;38.952;2024-03-02T07:19:57;9.96;53.99
83596;HTU21D;73564;45.026;38.952;2024-03-02T07:22:23;10.06;53.68
83596;HTU21D;73564;45.026;38.952;2024-03-02T07:24:49;10.27;53.22
83596;HTU21D;73564;45.026;38.952;2024-03-02T07:27:16;10.26;52.72
83596;HTU21D;73564;45.026;38.952;2024-03-02T07:29:42;10.21;53.11
83596;HTU21D;73564;45.026;38.952;2024-03-02T07:32:09;10.40;53.43
83596;HTU21D;73564;45.026;38.952;2024-03-02T07:34:35;10.73;53.03
83596;HTU21D;73564;45.026;38.952;2024-03-02T07:37:01;10.90;51.79
83596;HTU21D;73564;45.026;38.952;2024-03-02T07:39:28;10.83;50.16
83596;HTU21D;73564;45.026;38.952;2024-03-02T07:41:55;10.37;50.66
83596;HTU21D;73564;45.026;38.952;2024-03-02T07:44:21;10.04;51.24
83596;HTU21D;73564;45.026;38.952;2024-03-02T07:46:47;9.80;51.59
83596;HTU21D;73564;45.026;38.952;2024-03-02T07:49:15;9.67;52.56
83596;HTU21D;73564;45.026;38.952;2024-03-02T07:51:42;9.82;52.85
83596;HTU21D;73564;45.026;38.952;2024-03-02T07:54:07;9.99;52.92
83596;HTU21D;73564;45.026;38.952;2024-03-02T07:56:34;10.29;53.56
83596;HTU21D;73564;45.026;38.952;2024-03-02T07:59:01;10.67;52.29
83596;HTU21D;73564;45.026;38.952;2024-03-02T08:01:30;10.90;51.81
83596;HTU21D;73564;45.026;38.952;2024-03-02T08:04:02;11.15;51.82
83596;HTU21D;73564;45.026;38.952;2024-03-02T08:06:31;11.40;51.30
83596;HTU21D;73564;45.026;38.952;2024-03-02T08:08:59;11.58;50.42
83596;HTU21D;73564;45.026;38.952;2024-03-02T08:11:25;11.56;49.34
83596;HTU21D;73564;45.026;38.952;2024-03-02T08:13:52;11.24;49.07
83596;HTU21D;73564;45.026;38.952;2024-03-02T08:16:21;10.79;48.60
83596;HTU21D;73564;45.026;38.952;2024-03-02T08:18:48;10.48;49.98
83596;HTU21D;73564;45.026;38.952;2024-03-02T08:21:14;10.41;50.41
83596;HTU21D;73564;45.026;38.952;2024-03-02T08:23:40;10.37;49.41
83596;HTU21D;73564;45.026;38.952;2024-03-02T08:26:08;10.18;49.98
83596;HTU21D;73564;45.026;38.952;2024-03-02T08:28:34;10.05;50.43
83596;HTU21D;73564;45.026;38.952;2024-03-02T08:31:03;9.95;50.12
83596;HTU21D;73564;45.026;38.952;2024-03-02T08:33:29;9.81;50.14
83596;HTU21D;73564;45.026;38.952;2024-03-02T08:35:55;9.67;50.39
83596;HTU21D;73564;45.026;38.952;2024-03-02T08:38:21;9.56;51.10
83596;HTU21D;73564;45.026;38.952;2024-03-02T08:40:47;9.61;51.34
83596;HTU21D;73564;45.026;38.952;2024-03-02T08:43:13;9.66;51.24
83596;HTU21D;73564;45.026;38.952;2024-03-02T08:45:42;9.74;50.51
83596;HTU21D;73564;45.026;38.952;2024-03-02T08:48:08;9.71;51.58
83596;HTU21D;73564;45.026;38.952;2024-03-02T08:50:37;9.86;52.29
83596;HTU21D;73564;45.026;38.952;2024-03-02T08:53:05;10.10;51.05
83596;HTU21D;73564;45.026;38.952;2024-03-02T08:55:31;10.20;51.92
83596;HTU21D;73564;45.026;38.952;2024-03-02T08:57:57;10.48;52.07
83596;HTU21D;73564;45.026;38.952;2024-03-02T09:00:23;10.70;51.43
83596;HTU21D;73564;45.026;38.952;2024-03-02T09:02:49;10.93;51.87
83596;HTU21D;73564;45.026;38.952;2024-03-02T09:05:15;11.17;51.11
83596;HTU21D;73564;45.026;38.952;2024-03-02T09:07:41;11.18;50.04
83596;HTU21D;73564;45.026;38.952;2024-03-02T09:10:08;11.16;50.11
83596;HTU21D;73564;45.026;38.952;2024-03-02T09:12:34;11.23;50.43
83596;HTU21D;73564;45.026;38.952;2024-03-02T09:15:01;11.31;50.19
83596;HTU21D;73564;45.026;38.952;2024-03-02T09:17:28;11.38;49.86
83596;HTU21D;73564;45.026;38.952;2024-03-02T09:19:54;11.42;50.03
83596;HTU21D;73564;45.026;38.952;2024-03-02T09:22:20;11.52;51.60
83596;HTU21D;73564;45.026;38.952;2024-03-02T09:24:45;11.64;50.73
83596;HTU21D;73564;45.026;38.952;2024-03-02T09:27:11;11.64;49.59
83596;HTU21D;73564;45.026;38.952;2024-03-02T09:29:37;11.49;48.14
83596;HTU21D;73564;45.026;38.952;2024-03-02T09:32:04;11.26;48.01
83596;HTU21D;73564;45.026;38.952;2024-03-02T09:34:31;11.08;48.96
83596;HTU21D;73564;45.026;38.952;2024-03-02T09:36:57;11.10;50.97
83596;HTU21D;73564;45.026;38.952;2024-03-02T09:39:23;11.34;49.63
83596;HTU21D;73564;45.026;38.952;2024-03-02T09:41:50;11.47;49.81
83596;HTU21D;73564;45.026;38.952;2024-03-02T09:44:16;11.61;50.33
83596;HTU21D;73564;45.026;38.952;2024-03-02T09:46:42;11.84;49.95
83596;HTU21D;73564;45.026;38.952;2024-03-02T09:49:15;12.04;49.76
83596;HTU21D;73564;45.026;38.952;2024-03-02T09:51:47;12.25;49.44
83596;HTU21D;73564;45.026;38.952;2024-03-02T09:54:13;12.38;49.45
83596;HTU21D;73564;45.026;38.952;2024-03-02T09:56:39;12.46;48.91
83596;HTU21D;73564;45.026;38.952;2024-03-02T09:59:05;12.62;50.05
83596;HTU21D;73564;45.026;38.952;2024-03-02T10:01:31;12.87;48.24
83596;HTU21D;73564;45.026;38.952;2024-03-02T10:04:01;12.94;48.93
83596;HTU21D;73564;45.026;38.952;2024-03-02T10:07:19;13.22;48.05
83596;HTU21D;73564;45.026;38.952;2024-03-02T10:18:27;13.45;47.25
83596;HTU21D;73564;45.026;38.952;2024-03-02T10:21:21;13.45;46.77
83596;HTU21D;73564;45.026;38.952;2024-03-02T10:25:07;13.26;46.70
83596;HTU21D;73564;45.026;38.952;2024-03-02T10:28:19;13.27;47.18
83596;HTU21D;73564;45.026;38.952;2024-03-02T10:31:54;13.31;47.05
83596;HTU21D;73564;45.026;38.952;2024-03-02T10:34:21;13.32;46.31
83596;HTU21D;73564;45.026;38.952;2024-03-02T10:36:47;13.29;46.66
83596;HTU21D;73564;45.026;38.952;2024-03-02T10:39:14;13.33;46.79
83596;HTU21D;73564;45.026;38.952;2024-03-02T10:41:40;13.32;46.59
83596;HTU21D;73564;45.026;38.952;2024-03-02T10:44:09;13.34;47.27
83596;HTU21D;73564;45.026;38.952;2024-03-02T10:46:37;13.45;47.17
83596;HTU21D;73564;45.026;38.952;2024-03-02T10:49:04;13.54;47.54
83596;HTU21D;73564;45.026;38.952;2024-03-02T10:51:31;13.65;46.96
83596;HTU21D;73564;45.026;38.952;2024-03-02T10:53:58;13.66;46.21
83596;HTU21D;73564;45.026;38.952;2024-03-02T10:56:43;13.59;46.54
83596;HTU21D;73564;45.026;38.952;2024-03-02T10:59:35;13.56;46.25
83596;HTU21D;73564;45.026;38.952;2024-03-02T11:02:02;13.59;47.42
83596;HTU21D;73564;45.026;38.952;2024-03-02T11:04:29;13.68;47.21
83596;HTU21D;73564;45.026;38.952;2024-03-02T11:06:59;13.77;47.36
83596;HTU21D;73564;45.026;38.952;2024-03-02T11:09:28;13.80;46.50
83596;HTU21D;73564;45.026;38.952;2024-03-02T11:12:09;13.74;46.25
83596;HTU21D;73564;45.026;38.952;2024-03-02T11:14:40;13.68;46.39
83596;HTU21D;73564;45.026;38.952;2024-03-02T11:17:06;13.61;46.15
83596;HTU21D;73564;45.026;38.952;2024-03-02T11:19:33;13.54;46.60
83596;HTU21D;73564;45.026;38.952;2024-03-02T11:22:00;13.52;46.51
83596;HTU21D;73564;45.026;38.952;2024-03-02T11:24:28;13.53;47.41
83596;HTU21D;73564;45.026;38.952;2024-03-02T11:27:05;13.64;47.12
83596;HTU21D;73564;45.026;38.952;2024-03-02T11:32:03;13.66;46.28
83596;HTU21D;73564;45.026;38.952;2024-03-02T11:34:31;13.58;46.46
83596;HTU21D;73564;45.026;38.952;2024-03-02T11:36:57;13.54;46.46
83596;HTU21D;73564;45.026;38.952;2024-03-02T11:39:28;13.51;46.64
83596;HTU21D;73564;45.026;38.952;2024-03-02T11:41:54;13.45;46.19
83596;HTU21D;73564;45.026;38.952;2024-03-02T11:44:20;13.38;46.29
83596;HTU21D;73564;45.026;38.952;2024-03-02T11:46:58;13.33;46.70
83596;HTU21D;73564;45.026;38.952;2024-03-02T11:49:38;13.37;47.05
83596;HTU21D;73564;45.026;38.952;2024-03-02T11:52:09;13.40;46.76
83596;HTU21D;73564;45.026;38.952;2024-03-02T11:54:36;13.39;46.33
83596;HTU21D;73564;45.026;38.952;2024-03-02T11:57:08;13.36;46.26
83596;HTU21D;73564;45.026;38.952;2024-03-02T11:59:34;13.33;46.65
83596;HTU21D;73564;45.026;38.952;2024-03-02T12:02:00;13.33;46.40
83596;HTU21D;73564;45.026;38.952;2024-03-02T12:04:26;13.32;46.41
83596;HTU21D;73564;45.026;38.952;2024-03-02T12:07:00;13.33;46.74
83596;HTU21D;73564;45.026;38.952;2024-03-02T12:09:30;13.35;46.48
83596;HTU21D;73564;45.026;38.952;2024-03-02T12:12:06;13.40;46.68
83596;HTU21D;73564;45.026;38.952;2024-03-02T12:14:33;13.45;46.88
83596;HTU21D;73564;45.026;38.952;2024-03-02T12:16:59;13.53;46.67
83596;HTU21D;73564;45.026;38.952;2024-03-02T12:19:25;13.61;46.51
83596;HTU21D;73564;45.026;38.952;2024-03-02T12:21:52;13.66;46.70
83596;HTU21D;73564;45.026;38.952;2024-03-02T12:24:19;13.76;46.87
83596;HTU21D;73564;45.026;38.952;2024-03-02T12:26:45;13.84;46.45
83596;HTU21D;73564;45.026;38.952;2024-03-02T12:29:12;13.88;46.30
83596;HTU21D;73564;45.026;38.952;2024-03-02T12:31:39;13.94;46.44
83596;HTU21D;73564;45.026;38.952;2024-03-02T12:34:21;13.96;45.86
83596;HTU21D;73564;45.026;38.952;2024-03-02T12:37:00;13.94;46.00
83596;HTU21D;73564;45.026;38.952;2024-03-02T12:39:27;13.88;45.67
83596;HTU21D;73564;45.026;38.952;2024-03-02T12:41:53;13.80;45.66
83596;HTU21D;73564;45.026;38.952;2024-03-02T12:44:25;13.77;45.77
83596;HTU21D;73564;45.026;38.952;2024-03-02T12:46:51;13.75;45.96
83596;HTU21D;73564;45.026;38.952;2024-03-02T12:49:22;13.75;45.95
83596;HTU21D;73564;45.026;38.952;2024-03-02T12:51:48;13.80;46.00
83596;HTU21D;73564;45.026;38.952;2024-03-02T12:54:22;13.80;45.17
83596;HTU21D;73564;45.026;38.952;2024-03-02T12:56:52;13.73;45.55
83596;HTU21D;73564;45.026;38.952;2024-03-02T12:59:20;13.69;45.35
83596;HTU21D;73564;45.026;38.952;2024-03-02T13:01:54;13.66;45.60
83596;HTU21D;73564;45.026;38.952;2024-03-02T13:04:29;13.66;45.93
83596;HTU21D;73564;45.026;38.952;2024-03-02T13:06:55;13.78;46.34
83596;HTU21D;73564;45.026;38.952;2024-03-02T13:09:23;13.91;45.74
83596;HTU21D;73564;45.026;38.952;2024-03-02T13:11:49;13.96;45.28
83596;HTU21D;73564;45.026;38.952;2024-03-02T13:14:15;13.97;45.46
83596;HTU21D;73564;45.026;38.952;2024-03-02T13:16:41;14.05;45.05
83596;HTU21D;73564;45.026;38.952;2024-03-02T13:19:10;14.06;45.20
83596;HTU21D;73564;45.026;38.952;2024-03-02T13:21:36;14.00;44.13
83596;HTU21D;73564;45.026;38.952;2024-03-02T13:24:02;13.94;45.18
83596;HTU21D;73564;45.026;38.952;2024-03-02T13:26:29;14.00;45.26
83596;HTU21D;73564;45.026;38.952;2024-03-02T13:28:54;14.10;44.99
83596;HTU21D;73564;45.026;38.952;2024-03-02T13:31:20;14.15;45.21
83596;HTU21D;73564;45.026;38.952;2024-03-02T13:33:46;14.21;44.56
83596;HTU21D;73564;45.026;38.952;2024-03-02T13:36:12;14.22;44.19
83596;HTU21D;73564;45.026;38.952;2024-03-02T13:38:38;14.12;44.34
83596;HTU21D;73564;45.026;38.952;2024-03-02T13:41:04;14.05;44.64
83596;HTU21D;73564;45.026;38.952;2024-03-02T13:43:30;13.99;44.93
83596;HTU21D;73564;45.026;38.952;2024-03-02T13:46:01;13.98;44.47
83596;HTU21D;73564;45.026;38.952;2024-03-02T13:48:27;13.93;44.85
83596;HTU21D;73564;45.026;38.952;2024-03-02T13:50:53;13.86;44.96
83596;HTU21D;73564;45.026;38.952;2024-03-02T13:53:19;13.83;45.22
83596;HTU21D;73564;45.026;38.952;2024-03-02T13:55:45;13.88;45.25
83596;HTU21D;73564;45.026;38.952;2024-03-02T13:58:11;13.91;44.28
83596;HTU21D;73564;45.026;38.952;2024-03-02T14:00:38;13.80;43.75
83596;HTU21D;73564;45.026;38.952;2024-03-02T14:03:05;13.61;44.23
83596;HTU21D;73564;45.026;38.952;2024-03-02T14:05:32;13.47;44.08
83596;HTU21D;73564;45.026;38.952;2024-03-02T14:07:57;13.35;44.35
83596;HTU21D;73564;45.026;38.952;2024-03-02T14:10:25;13.22;44.55
83596;HTU21D;73564;45.026;38.952;2024-03-02T14:12:51;13.16;44.87
83596;HTU21D;73564;45.026;38.952;2024-03-02T14:15:17;13.06;45.06
83596;HTU21D;73564;45.026;38.952;2024-03-02T14:17:42;12.94;45.35
83596;HTU21D;73564;45.026;38.952;2024-03-02T14:20:08;12.82;45.42
83596;HTU21D;73564;45.026;38.952;2024-03-02T14:22:37;12.70;45.72
83596;HTU21D;73564;45.026;38.952;2024-03-02T14:25:03;12.60;45.80
83596;HTU21D;73564;45.026;38.952;2024-03-02T14:27:29;12.48;45.96
83596;HTU21D;73564;45.026;38.952;2024-03-02T14:29:55;12.41;46.08
83596;HTU21D;73564;45.026;38.952;2024-03-02T14:32:21;12.33;46.47
83596;HTU21D;73564;45.026;38.952;2024-03-02T14:34:47;12.30;46.48
83596;HTU21D;73564;45.026;38.952;2024-03-02T14:37:14;12.23;46.46
83596;HTU21D;73564;45.026;38.952;2024-03-02T14:39:39;12.07;46.69
83596;HTU21D;73564;45.026;38.952;2024-03-02T14:42:05;11.94;46.96
83596;HTU21D;73564;45.026;38.952;2024-03-02T14:44:32;11.86;47.15
83596;HTU21D;73564;45.026;38.952;2024-03-02T14:46:58;11.79;47.57
83596;HTU21D;73564;45.026;38.952;2024-03-02T14:49:26;11.75;47.56
83596;HTU21D;73564;45.026;38.952;2024-03-02T14:51:52;11.67;47.48
83596;HTU21D;73564;45.026;38.952;2024-03-02T14:54:18;11.55;47.58
83596;HTU21D;73564;45.026;38.952;2024-03-02T14:56:44;11.42;47.78
83596;HTU21D;73564;45.026;38.952;2024-03-02T14:59:09;11.31;47.96
83596;HTU21D;73564;45.026;38.952;2024-03-02T15:01:36;11.22;47.99
83596;HTU21D;73564;45.026;38.952;2024-03-02T15:04:02;11.13;48.12
83596;HTU21D;73564;45.026;38.952;2024-03-02T15:06:27;11.05;48.11
83596;HTU21D;73564;45.026;38.952;2024-03-02T15:08:53;11.00;48.27
83596;HTU21D;73564;45.026;38.952;2024-03-02T15:11:20;10.93;48.26
83596;HTU21D;73564;45.026;38.952;2024-03-02T15:13:48;10.84;48.37
83596;HTU21D;73564;45.026;38.952;2024-03-02T15:16:14;10.72;48.22
83596;HTU21D;73564;45.026;38.952;2024-03-02T15:18:40;10.57;48.48
83596;HTU21D;73564;45.026;38.952;2024-03-02T15:21:05;10.45;48.56
83596;HTU21D;73564;45.026;38.952;2024-03-02T15:23:31;10.30;49.09
83596;HTU21D;73564;45.026;38.952;2024-03-02T15:25:57;10.22;49.37
83596;HTU21D;73564;45.026;38.952;2024-03-02T15:28:23;10.15;49.59
83596;HTU21D;73564;45.026;38.952;2024-03-02T15:30:48;10.09;49.56